Home   Weather   Germany   Burg   Past weeks
Flag for Germany

Past Weather in Burg, Saxony-Anhalt, Germany — Yesterday and Last 2 Weeks

Currently: 68 °F. Passing clouds. (Weather station: Braunschweig Wolfsburg, Germany). See more current weather

Past Weather in Burg — Graph

°F

Burg Temperature Yesterday

Maximum temperature yesterday: 72 °F (at 7:20 pm)
Minimum temperature yesterday: 54 °F (at 4:50 am)
Average temperature yesterday: 62 °F

High & Low Weather Summary for the Past Weeks

 TemperatureHumidityPressure
High95 °F (Jun 18, 3:50 pm)100% (Jun 9, 11:50 pm)30.33 "Hg (Jun 9, 11:50 pm)
Low46 °F (Jun 14, 4:20 am)24% (Jun 17, 2:20 pm)29.68 "Hg (Jun 21, 6:50 am)
Average68 °F65%30.04 "Hg
* Reported Jun 9 5:20 pm — Jun 24 5:20 pm, Burg. Weather by CustomWeather, © 2021

Note: Actual official high and low records may vary slightly from our data, if they occured in-between our weather recording intervals... More about our weather records

Burg Weather History for the Previous 24 Hours

Scroll right to see more
 ConditionsComfort  
Time TempWeatherWind HumidityBarometerVisibility
5:20 pm
Thu, Jun 24
70 °FPassing clouds.3 mph60%30.07 "HgN/A
4:50 pm70 °FPassing clouds.3 mph57%30.07 "HgN/A
4:20 pm70 °FSunny.2 mph60%30.07 "Hg10 mi
3:50 pm70 °FPassing clouds.3 mph60%30.09 "HgN/A
3:20 pm70 °FSunny.3 mph60%30.09 "Hg10 mi
2:50 pm70 °FSunny.2 mph64%30.09 "Hg10 mi
2:20 pm70 °FSunny.2 mph60%30.09 "Hg10 mi
1:50 pm68 °FSunny.3 mph64%30.09 "Hg10 mi
1:20 pm66 °FPassing clouds.5 mph68%30.09 "HgN/A
12:50 pm66 °FPassing clouds.No wind73%30.09 "HgN/A
12:20 pm66 °FBroken clouds.2 mph78%30.12 "HgN/A
11:50 am64 °FScattered clouds.5 mph78%30.09 "HgN/A
11:20 am66 °FPassing clouds.5 mph73%30.09 "HgN/A
10:50 am64 °FPassing clouds.6 mph78%30.09 "HgN/A
10:20 am63 °FSunny.3 mph83%30.12 "Hg10 mi
9:50 am63 °FSunny.2 mph83%30.12 "Hg10 mi
9:20 am61 °FPartly sunny.2 mph88%30.12 "HgN/A
8:50 am61 °FPartly sunny.3 mph88%30.12 "HgN/A
8:20 am61 °FPartly sunny.2 mph88%30.12 "HgN/A
7:50 am61 °FPartly sunny.5 mph88%30.12 "HgN/A
7:20 am59 °FOvercast.3 mph88%30.09 "HgN/A
6:50 am59 °FPartly sunny.3 mph88%30.09 "HgN/A
6:20 am59 °FPartly sunny.5 mph88%30.09 "HgN/A
5:50 am59 °FOvercast.5 mph88%30.09 "HgN/A
5:20 am59 °FOvercast.No wind88%30.12 "HgN/A
4:50 am59 °FMostly cloudy.3 mph88%30.12 "HgN/A
4:20 am59 °FOvercast.No wind88%30.12 "HgN/A
3:50 am59 °FPassing clouds.No wind82%30.12 "HgN/A
3:20 am59 °FMostly cloudy.3 mph88%30.12 "HgN/A
2:50 am59 °FMostly cloudy.No wind82%30.12 "HgN/A
1:50 am61 °FOvercast.3 mph77%30.12 "HgN/A
1:20 am61 °FOvercast.5 mph77%30.12 "HgN/A
12:50 am63 °FOvercast.5 mph77%30.12 "HgN/A
12:20 am63 °FOvercast.2 mph77%30.15 "HgN/A
11:50 pm
Wed, Jun 23
63 °FOvercast.2 mph77%30.12 "HgN/A
11:20 pm63 °FOvercast.3 mph77%30.12 "HgN/A
10:50 pm63 °FOvercast.2 mph77%30.12 "HgN/A
10:20 pm63 °FPassing clouds.2 mph77%30.12 "HgN/A
9:50 pm63 °FPassing clouds.3 mph77%30.12 "HgN/A
9:20 pm64 °FPassing clouds.2 mph73%30.12 "HgN/A
8:50 pm66 °FPartly sunny.2 mph68%30.12 "HgN/A
8:20 pm68 °FScattered clouds.2 mph64%30.12 "HgN/A
7:50 pm70 °FPassing clouds.3 mph60%30.12 "HgN/A
7:20 pm72 °FSunny.No wind57%30.12 "Hg10 mi
6:50 pm70 °FSunny.2 mph57%30.12 "Hg10 mi
6:20 pm70 °FScattered clouds.2 mph60%30.12 "HgN/A
Weather by CustomWeather, © 2021

See weather overview